Time;durP1;ratioP1;P1;durP2;ratioP2;P2;SDS_P1;SDS_P2;PMS_P1;PMS_P2;Temp;Humidity;BMP_temperature;BMP_pressure;BME280_temperature;BME280_humidity;BME280_pressure;Samples;Min_cycle;Max_cycle;Signal;HPM_P1;HPM_P2
2023/12/13 00:01:07;;;;;;;16.67;15.57;;;;;;;;;;5012951;28;20448;-39
2023/12/13 00:03:34;;;;;;;17.27;15.73;;;;;;;;;;5012860;28;20437;-38
2023/12/13 00:06:04;;;;;;;16.73;15.57;;;;;;;;;;5012379;28;21051;-39
2023/12/13 00:08:31;;;;;;;16.57;15.37;;;;;;;;;;5012407;28;20468;-39
2023/12/13 00:10:59;;;;;;;16.87;15.83;;;;;;;;;;5012505;28;20987;-39
2023/12/13 00:13:27;;;;;;;17.20;15.90;;;;;;;;;;5012472;28;20437;-40
2023/12/13 00:15:55;;;;;;;17.47;16.17;;;;;;;;;;5012421;28;20488;-39
2023/12/13 00:18:22;;;;;;;16.70;15.70;;;;;;;;;;5012148;28;21044;-40
2023/12/13 00:20:50;;;;;;;17.17;16.17;;;;;;;;;;5012419;28;20932;-40
2023/12/13 00:23:19;;;;;;;17.73;16.70;;;;;;;;;;5012190;28;20524;-39
2023/12/13 00:25:46;;;;;;;16.93;15.83;;;;;;;;;;5012033;28;20464;-41
2023/12/13 00:28:14;;;;;;;17.07;16.20;;;;;;;;;;5012047;28;20460;-39
2023/12/13 00:30:41;;;;;;;17.67;16.60;;;;;;;;;;5012146;28;20951;-39
2023/12/13 00:33:09;;;;;;;17.47;16.50;;;;;;;;;;5012332;28;20517;-41
2023/12/13 00:35:37;;;;;;;18.53;17.40;;;;;;;;;;5011895;28;20511;-39
2023/12/13 00:38:04;;;;;;;18.70;17.60;;;;;;;;;;5011623;28;20515;-39
2023/12/13 00:40:33;;;;;;;18.43;17.30;;;;;;;;;;5011839;28;20445;-41
2023/12/13 00:43:01;;;;;;;19.27;18.27;;;;;;;;;;5012208;28;20441;-39
2023/12/13 00:45:29;;;;;;;19.90;18.60;;;;;;;;;;5010984;28;20509;-39
2023/12/13 00:47:56;;;;;;;21.17;19.87;;;;;;;;;;5011650;28;20467;-39
2023/12/13 00:50:24;;;;;;;20.70;19.50;;;;;;;;;;5011936;28;20454;-41
2023/12/13 00:52:52;;;;;;;21.47;20.07;;;;;;;;;;5011878;28;20447;-40
2023/12/13 00:55:19;;;;;;;24.10;22.00;;;;;;;;;;5011347;28;20445;-39
2023/12/13 00:57:48;;;;;;;21.70;20.33;;;;;;;;;;5011445;28;20902;-41
2023/12/13 01:00:16;;;;;;;23.77;21.90;;;;;;;;;;5011875;28;20443;-39
2023/12/13 01:02:44;;;;;;;23.67;22.10;;;;;;;;;;5011732;28;20460;-39
2023/12/13 01:05:12;;;;;;;24.03;22.50;;;;;;;;;;5011421;28;20959;-39
2023/12/13 01:07:39;;;;;;;24.43;22.83;;;;;;;;;;5011335;28;20878;-39
2023/12/13 01:10:07;;;;;;;24.77;23.17;;;;;;;;;;5011804;28;20440;-39
2023/12/13 01:12:35;;;;;;;23.30;21.20;;;;;;;;;;5011541;28;20480;-39
2023/12/13 01:15:04;;;;;;;24.70;22.67;;;;;;;;;;5011401;28;20522;-40
2023/12/13 01:17:32;;;;;;;24.03;22.23;;;;;;;;;;5011121;28;20473;-38
2023/12/13 01:20:00;;;;;;;25.00;23.07;;;;;;;;;;5011531;28;20944;-39
2023/12/13 01:22:29;;;;;;;23.10;21.70;;;;;;;;;;5011428;28;20440;-40
2023/12/13 01:24:57;;;;;;;25.30;23.33;;;;;;;;;;5011509;28;20429;-39
2023/12/13 01:27:24;;;;;;;23.73;22.23;;;;;;;;;;5010815;28;20471;-39
2023/12/13 01:29:52;;;;;;;23.97;22.27;;;;;;;;;;5011545;28;20459;-39
2023/12/13 01:32:21;;;;;;;25.70;23.63;;;;;;;;;;5011018;28;20473;-39
2023/12/13 01:34:48;;;;;;;24.87;22.87;;;;;;;;;;5011401;28;20818;-41
2023/12/13 01:37:16;;;;;;;25.90;24.10;;;;;;;;;;5011146;28;20465;-39
2023/12/13 01:39:43;;;;;;;26.87;25.17;;;;;;;;;;5011342;28;20528;-39
2023/12/13 01:42:11;;;;;;;24.50;22.90;;;;;;;;;;5010824;28;20587;-40
2023/12/13 01:44:39;;;;;;;24.27;22.47;;;;;;;;;;5010663;28;20433;-38
2023/12/13 01:47:06;;;;;;;25.77;23.90;;;;;;;;;;5010775;28;20475;-39
2023/12/13 01:49:35;;;;;;;26.50;23.90;;;;;;;;;;5011269;28;20464;-39
2023/12/13 01:52:03;;;;;;;25.80;24.10;;;;;;;;;;5011293;28;20548;-39
2023/12/13 01:54:31;;;;;;;23.57;22.03;;;;;;;;;;5011044;28;20813;-39
2023/12/13 01:56:59;;;;;;;25.20;23.30;;;;;;;;;;5014219;28;20548;-39
2023/12/13 01:59:28;;;;;;;26.17;24.17;;;;;;;;;;5014882;28;20853;-38
2023/12/13 02:01:55;;;;;;;27.13;24.87;;;;;;;;;;5015134;28;20499;-38
2023/12/13 02:04:24;;;;;;;28.10;25.47;;;;;;;;;;5014803;28;20436;-38
2023/12/13 02:06:54;;;;;;;26.70;24.70;;;;;;;;;;5014603;28;20523;-38
2023/12/13 02:09:21;;;;;;;27.97;25.73;;;;;;;;;;5014887;28;20437;-40
2023/12/13 02:11:49;;;;;;;27.27;25.10;;;;;;;;;;5006819;28;20465;-39
2023/12/13 02:14:17;;;;;;;28.33;25.83;;;;;;;;;;5015073;28;20432;-39
2023/12/13 02:16:45;;;;;;;30.33;27.27;;;;;;;;;;5014009;28;20460;-39
2023/12/13 02:19:13;;;;;;;29.90;26.77;;;;;;;;;;5014914;28;20441;-39
2023/12/13 02:21:40;;;;;;;28.27;26.17;;;;;;;;;;5014681;28;20433;-39
2023/12/13 02:24:09;;;;;;;29.70;26.70;;;;;;;;;;5014643;28;20433;-39
2023/12/13 02:26:39;;;;;;;31.57;28.37;;;;;;;;;;5014114;28;20538;-40
2023/12/13 02:29:07;;;;;;;30.00;27.10;;;;;;;;;;5014380;28;20472;-39
2023/12/13 02:31:35;;;;;;;31.03;28.03;;;;;;;;;;5014198;28;20440;-39
2023/12/13 02:34:03;;;;;;;31.47;28.27;;;;;;;;;;5014453;28;20464;-39
2023/12/13 02:36:31;;;;;;;35.47;30.47;;;;;;;;;;5013939;28;20461;-38
2023/12/13 02:38:59;;;;;;;40.73;29.70;;;;;;;;;;5013767;28;20461;-39
2023/12/13 02:41:28;;;;;;;31.93;28.60;;;;;;;;;;5014075;28;21017;-40
2023/12/13 02:43:55;;;;;;;32.30;29.17;;;;;;;;;;5014301;28;20436;-39
2023/12/13 02:46:23;;;;;;;32.90;30.20;;;;;;;;;;5013860;28;20463;-40
2023/12/13 02:48:51;;;;;;;31.47;28.83;;;;;;;;;;5013800;28;20461;-38
2023/12/13 02:51:18;;;;;;;30.83;27.93;;;;;;;;;;5013956;28;20487;-39
2023/12/13 02:53:46;;;;;;;31.00;28.50;;;;;;;;;;5013721;28;20473;-38
2023/12/13 02:56:14;;;;;;;29.40;27.13;;;;;;;;;;5013636;28;20518;-41
2023/12/13 02:58:43;;;;;;;30.33;27.80;;;;;;;;;;4997081;28;20481;-39
2023/12/13 03:01:11;;;;;;;30.07;27.33;;;;;;;;;;4994136;28;20465;-39
2023/12/13 03:03:39;;;;;;;29.60;27.13;;;;;;;;;;4994233;28;20448;-39
2023/12/13 03:06:06;;;;;;;30.57;27.47;;;;;;;;;;4993731;28;20497;-39
2023/12/13 03:08:36;;;;;;;28.83;26.33;;;;;;;;;;5008188;28;20465;-39
2023/12/13 03:11:03;;;;;;;30.27;27.43;;;;;;;;;;5013878;28;20468;-39
2023/12/13 03:13:31;;;;;;;38.73;35.63;;;;;;;;;;5013572;28;20476;-39
2023/12/13 03:16:00;;;;;;;36.17;32.40;;;;;;;;;;5013420;28;20453;-39
2023/12/13 03:18:27;;;;;;;35.30;32.30;;;;;;;;;;4998623;28;20462;-39
2023/12/13 03:20:55;;;;;;;32.47;29.57;;;;;;;;;;4994112;28;20850;-39
2023/12/13 03:23:23;;;;;;;38.90;35.37;;;;;;;;;;4994136;28;20814;-39
2023/12/13 03:25:50;;;;;;;35.77;32.87;;;;;;;;;;4993598;28;20461;-39
2023/12/13 03:28:18;;;;;;;41.07;37.67;;;;;;;;;;5006498;28;20520;-40
2023/12/13 03:30:45;;;;;;;39.63;36.83;;;;;;;;;;5013151;28;20437;-40
2023/12/13 03:33:14;;;;;;;36.80;33.87;;;;;;;;;;5013144;28;20981;-39
2023/12/13 03:35:42;;;;;;;36.03;33.23;;;;;;;;;;5012750;28;20503;-39
2023/12/13 03:38:10;;;;;;;35.43;32.67;;;;;;;;;;5001052;28;20554;-40
2023/12/13 03:40:38;;;;;;;37.77;34.77;;;;;;;;;;4993558;28;20434;-39
2023/12/13 03:43:06;;;;;;;36.73;33.93;;;;;;;;;;4993423;28;20918;-38
2023/12/13 03:45:33;;;;;;;34.73;32.13;;;;;;;;;;4993061;28;20486;-40
2023/12/13 03:48:01;;;;;;;31.00;28.57;;;;;;;;;;5003808;28;20984;-40
2023/12/13 03:50:30;;;;;;;30.90;28.60;;;;;;;;;;5012938;28;20968;-39
2023/12/13 03:52:58;;;;;;;31.77;29.43;;;;;;;;;;5013048;28;20501;-39
2023/12/13 03:55:25;;;;;;;30.83;28.33;;;;;;;;;;5012692;28;20528;-41
2023/12/13 03:57:53;;;;;;;30.93;28.53;;;;;;;;;;5002800;28;20877;-38
2023/12/13 04:00:21;;;;;;;29.80;27.70;;;;;;;;;;4993091;28;21004;-39
2023/12/13 04:02:48;;;;;;;30.07;28.17;;;;;;;;;;4993160;28;20438;-40
2023/12/13 04:05:16;;;;;;;28.33;26.40;;;;;;;;;;4993056;28;20438;-39
2023/12/13 04:07:45;;;;;;;28.40;26.70;;;;;;;;;;5001000;28;20540;-40
2023/12/13 04:10:13;;;;;;;26.93;25.00;;;;;;;;;;5012654;28;20441;-39
2023/12/13 04:12:40;;;;;;;26.63;25.23;;;;;;;;;;5012332;28;20469;-39
2023/12/13 04:15:08;;;;;;;29.63;27.73;;;;;;;;;;5012394;28;20921;-39
2023/12/13 04:17:36;;;;;;;30.97;29.00;;;;;;;;;;5004615;28;20838;-39
2023/12/13 04:20:05;;;;;;;26.63;25.10;;;;;;;;;;4992808;28;20442;-40
2023/12/13 04:22:33;;;;;;;27.93;26.13;;;;;;;;;;4992870;28;20441;-40
2023/12/13 04:25:01;;;;;;;26.20;24.70;;;;;;;;;;4992584;28;20467;-40
2023/12/13 04:27:29;;;;;;;25.43;23.93;;;;;;;;;;4998450;28;20540;-41
2023/12/13 04:29:57;;;;;;;24.67;23.27;;;;;;;;;;5012492;28;20438;-39
2023/12/13 04:32:24;;;;;;;23.90;22.20;;;;;;;;;;5012232;28;20464;-39
2023/12/13 04:34:52;;;;;;;25.33;23.47;;;;;;;;;;5011902;28;20437;-41
2023/12/13 04:37:20;;;;;;;25.00;23.40;;;;;;;;;;5006492;28;20469;-39
2023/12/13 04:39:48;;;;;;;23.80;22.40;;;;;;;;;;4992368;28;20437;-41
2023/12/13 04:42:17;;;;;;;24.03;22.03;;;;;;;;;;4992658;28;20430;-39
2023/12/13 04:44:44;;;;;;;24.33;22.67;;;;;;;;;;4992121;28;20440;-41
2023/12/13 04:47:12;;;;;;;24.37;22.87;;;;;;;;;;4996278;28;20488;-39
2023/12/13 04:49:39;;;;;;;21.40;20.30;;;;;;;;;;5012117;28;20441;-40
2023/12/13 04:52:07;;;;;;;23.47;21.97;;;;;;;;;;5011884;28;20528;-40
2023/12/13 04:54:37;;;;;;;22.03;20.73;;;;;;;;;;5011851;28;20473;-40
2023/12/13 04:57:05;;;;;;;20.53;19.00;;;;;;;;;;5008046;28;20537;-40
2023/12/13 04:59:34;;;;;;;20.17;18.77;;;;;;;;;;4992125;28;20846;-38
2023/12/13 05:02:01;;;;;;;18.93;17.80;;;;;;;;;;4992286;28;20789;-39
2023/12/13 05:04:29;;;;;;;19.13;17.70;;;;;;;;;;4991990;28;20441;-42
2023/12/13 05:06:57;;;;;;;18.03;16.93;;;;;;;;;;4993549;28;20529;-39
2023/12/13 05:09:24;;;;;;;18.47;17.10;;;;;;;;;;5011851;28;20822;-40
2023/12/13 05:11:52;;;;;;;19.43;18.30;;;;;;;;;;5011584;28;20433;-40
2023/12/13 05:14:19;;;;;;;18.43;17.30;;;;;;;;;;5011444;28;20483;-38
2023/12/13 05:16:48;;;;;;;18.97;17.97;;;;;;;;;;5010176;28;20463;-39
2023/12/13 05:19:16;;;;;;;19.50;18.37;;;;;;;;;;4992104;28;20814;-41
2023/12/13 05:21:43;;;;;;;18.67;17.50;;;;;;;;;;4986122;28;20473;-39
2023/12/13 05:24:11;;;;;;;19.57;18.47;;;;;;;;;;4992056;28;20818;-39
2023/12/13 05:26:39;;;;;;;19.43;17.80;;;;;;;;;;4991738;28;20536;-40
2023/12/13 05:29:06;;;;;;;20.53;19.20;;;;;;;;;;5011355;28;20468;-40
2023/12/13 05:31:34;;;;;;;19.90;18.60;;;;;;;;;;5014901;28;20437;-41
2023/12/13 05:34:03;;;;;;;19.93;18.73;;;;;;;;;;5015267;28;20469;-39
2023/12/13 05:36:31;;;;;;;19.67;18.60;;;;;;;;;;5015092;28;20464;-39
2023/12/13 05:38:59;;;;;;;20.17;18.90;;;;;;;;;;4996284;28;20512;-39
2023/12/13 05:41:26;;;;;;;22.67;20.80;;;;;;;;;;4995770;28;20438;-39
2023/12/13 05:43:54;;;;;;;21.00;19.90;;;;;;;;;;4995505;28;20937;-40
2023/12/13 05:46:22;;;;;;;19.73;18.67;;;;;;;;;;4995394;28;20462;-42
2023/12/13 05:48:49;;;;;;;45.37;42.80;;;;;;;;;;5012404;28;20476;-39
2023/12/13 05:51:18;;;;;;;28.73;27.23;;;;;;;;;;5015212;28;20936;-39
2023/12/13 05:53:46;;;;;;;26.20;24.40;;;;;;;;;;5015154;28;20479;-39
2023/12/13 05:56:14;;;;;;;22.80;21.50;;;;;;;;;;5014741;28;20468;-39
2023/12/13 05:58:41;;;;;;;23.87;22.00;;;;;;;;;;4998347;28;20465;-39
2023/12/13 06:01:09;;;;;;;24.33;22.73;;;;;;;;;;4995387;28;20444;-39
2023/12/13 06:03:36;;;;;;;24.43;23.03;;;;;;;;;;4995431;28;20472;-39
2023/12/13 06:06:04;;;;;;;24.90;23.70;;;;;;;;;;4995271;28;20544;-38
2023/12/13 06:08:33;;;;;;;26.33;24.93;;;;;;;;;;5009886;28;20515;-39
2023/12/13 06:11:01;;;;;;;25.13;23.80;;;;;;;;;;5014799;28;20929;-39
2023/12/13 06:13:29;;;;;;;23.27;21.73;;;;;;;;;;5014695;28;20940;-38
2023/12/13 06:15:57;;;;;;;21.40;20.20;;;;;;;;;;5014270;28;20457;-39
2023/12/13 06:18:24;;;;;;;20.57;19.47;;;;;;;;;;5000432;28;20465;-39
2023/12/13 06:20:52;;;;;;;21.90;20.70;;;;;;;;;;4988807;28;20435;-39
2023/12/13 06:23:20;;;;;;;21.97;20.03;;;;;;;;;;4994834;28;20442;-40
2023/12/13 06:25:49;;;;;;;19.50;18.40;;;;;;;;;;4994672;28;20458;-38
2023/12/13 06:28:16;;;;;;;21.87;20.47;;;;;;;;;;5007283;28;20483;-40
2023/12/13 06:30:44;;;;;;;20.33;19.33;;;;;;;;;;5014617;28;20479;-40
2023/12/13 06:33:11;;;;;;;19.67;18.57;;;;;;;;;;5014618;28;20437;-39
2023/12/13 06:35:39;;;;;;;19.80;18.90;;;;;;;;;;5014076;28;20476;-40
2023/12/13 06:38:07;;;;;;;19.77;18.77;;;;;;;;;;5002316;28;20458;-38
2023/12/13 06:40:34;;;;;;;20.77;19.77;;;;;;;;;;4994659;28;20465;-39
2023/12/13 06:43:04;;;;;;;21.40;20.33;;;;;;;;;;4994757;28;20434;-39
2023/12/13 06:45:32;;;;;;;20.37;19.47;;;;;;;;;;4994622;28;20454;-40
2023/12/13 06:48:00;;;;;;;20.43;19.23;;;;;;;;;;5004611;28;20960;-39
2023/12/13 06:50:28;;;;;;;21.67;20.50;;;;;;;;;;5014133;28;20468;-39
2023/12/13 06:52:55;;;;;;;21.80;20.53;;;;;;;;;;5014116;28;20435;-39
2023/12/13 06:55:23;;;;;;;21.50;20.50;;;;;;;;;;5013521;28;20507;-40
2023/12/13 06:57:50;;;;;;;22.47;21.00;;;;;;;;;;5004217;28;21023;-38
2023/12/13 07:00:21;;;;;;;22.43;21.33;;;;;;;;;;4994312;28;20493;-39
2023/12/13 07:02:49;;;;;;;21.87;20.43;;;;;;;;;;4994356;28;20441;-40
2023/12/13 07:05:17;;;;;;;22.17;20.97;;;;;;;;;;4993985;28;20439;-39
2023/12/13 07:07:46;;;;;;;23.10;21.60;;;;;;;;;;5002126;28;20522;-40
2023/12/13 07:10:14;;;;;;;22.43;21.10;;;;;;;;;;5013764;28;20956;-39
2023/12/13 07:12:42;;;;;;;21.60;20.10;;;;;;;;;;5013799;28;20433;-39
2023/12/13 07:15:10;;;;;;;21.20;20.00;;;;;;;;;;5013511;28;20480;-40
2023/12/13 07:17:42;;;;;;;20.50;19.23;;;;;;;;;;5005581;28;20458;-39
2023/12/13 07:20:11;;;;;;;23.77;22.17;;;;;;;;;;4986577;28;20501;-39
2023/12/13 07:22:39;;;;;;;25.57;23.97;;;;;;;;;;4994198;28;20438;-39
2023/12/13 07:25:07;;;;;;;24.60;23.23;;;;;;;;;;4993630;28;20430;-41
2023/12/13 07:27:35;;;;;;;23.90;22.40;;;;;;;;;;5000809;28;20496;-38
2023/12/13 07:30:03;;;;;;;27.00;25.30;;;;;;;;;;5013422;28;20465;-39
2023/12/13 07:32:33;;;;;;;26.90;25.10;;;;;;;;;;5013385;28;20441;-39
2023/12/13 07:35:03;;;;;;;28.13;26.30;;;;;;;;;;5012847;28;20476;-39
2023/12/13 07:37:30;;;;;;;24.60;23.13;;;;;;;;;;5006129;28;20469;-38
2023/12/13 07:39:58;;;;;;;23.83;22.07;;;;;;;;;;4993712;28;20858;-39
2023/12/13 07:42:27;;;;;;;25.03;23.23;;;;;;;;;;4993678;28;20441;-40
2023/12/13 07:44:55;;;;;;;25.93;24.23;;;;;;;;;;4993284;28;20783;-40
2023/12/13 07:47:23;;;;;;;25.13;23.53;;;;;;;;;;4998545;28;20471;-39
2023/12/13 07:49:50;;;;;;;24.27;22.57;;;;;;;;;;5013186;28;20450;-41
2023/12/13 07:52:20;;;;;;;23.97;22.47;;;;;;;;;;5012961;28;20524;-39
2023/12/13 07:54:48;;;;;;;22.63;21.00;;;;;;;;;;5012168;28;20569;-39
2023/12/13 07:57:15;;;;;;;22.33;21.03;;;;;;;;;;5007914;28;20545;-42
2023/12/13 07:59:43;;;;;;;20.93;19.73;;;;;;;;;;4993122;28;20528;-40
2023/12/13 08:02:11;;;;;;;21.17;19.87;;;;;;;;;;4993578;28;20810;-40
2023/12/13 08:04:41;;;;;;;20.10;18.60;;;;;;;;;;4992979;28;20525;-39
2023/12/13 08:07:08;;;;;;;19.97;18.50;;;;;;;;;;4988382;28;20461;-40
2023/12/13 08:09:37;;;;;;;19.50;18.27;;;;;;;;;;5012854;28;20858;-39
2023/12/13 08:12:05;;;;;;;18.83;17.53;;;;;;;;;;5012544;28;20461;-39
2023/12/13 08:14:33;;;;;;;18.00;16.90;;;;;;;;;;5012159;28;20528;-39
2023/12/13 08:17:02;;;;;;;17.83;16.37;;;;;;;;;;5009153;28;20465;-39
2023/12/13 08:19:31;;;;;;;16.97;15.77;;;;;;;;;;4993117;28;20508;-40
2023/12/13 08:21:58;;;;;;;16.53;15.63;;;;;;;;;;4985406;28;20953;-39
2023/12/13 08:24:26;;;;;;;16.07;15.17;;;;;;;;;;4992656;28;20476;-41
2023/12/13 08:26:55;;;;;;;17.30;15.87;;;;;;;;;;4993715;28;20872;-40
2023/12/13 08:29:22;;;;;;;17.33;15.60;;;;;;;;;;5012243;28;20469;-40
2023/12/13 08:31:50;;;;;;;20.00;18.80;;;;;;;;;;5012380;28;20443;-40
2023/12/13 08:34:18;;;;;;;18.50;17.27;;;;;;;;;;5012378;28;20443;-40
2023/12/13 08:36:46;;;;;;;17.80;16.57;;;;;;;;;;5010699;28;20481;-40
2023/12/13 08:39:14;;;;;;;20.30;19.00;;;;;;;;;;4992541;28;20469;-41
2023/12/13 08:41:42;;;;;;;20.57;19.37;;;;;;;;;;4992562;28;20496;-39
2023/12/13 08:44:11;;;;;;;20.87;19.43;;;;;;;;;;4992555;28;20444;-39
2023/12/13 08:46:39;;;;;;;21.10;19.50;;;;;;;;;;4992281;28;20486;-39
2023/12/13 08:49:06;;;;;;;18.63;17.63;;;;;;;;;;4992089;28;20450;-43
2023/12/13 08:51:34;;;;;;;19.10;17.90;;;;;;;;;;4992422;28;20434;-40
2023/12/13 08:54:03;;;;;;;18.67;17.63;;;;;;;;;;4992153;28;20433;-40
2023/12/13 08:56:31;;;;;;;19.30;17.70;;;;;;;;;;4991887;28;20509;-40
2023/12/13 08:58:59;;;;;;;17.23;16.13;;;;;;;;;;5010392;28;20532;-40
2023/12/13 09:01:28;;;;;;;16.53;15.43;;;;;;;;;;5011719;28;20480;-40
2023/12/13 09:03:56;;;;;;;16.13;15.17;;;;;;;;;;5011615;28;20433;-44
2023/12/13 09:06:24;;;;;;;17.50;16.20;;;;;;;;;;5010695;28;20457;-40
2023/12/13 09:08:52;;;;;;;17.70;15.80;;;;;;;;;;4993839;28;20458;-40
2023/12/13 09:11:19;;;;;;;15.73;14.50;;;;;;;;;;4992195;28;20438;-40
2023/12/13 09:13:48;;;;;;;18.07;16.20;;;;;;;;;;4991959;28;20929;-42
2023/12/13 09:16:16;;;;;;;17.77;16.10;;;;;;;;;;4991753;28;20480;-38
2023/12/13 09:18:45;;;;;;;16.83;15.90;;;;;;;;;;5007969;28;20457;-40
2023/12/13 09:21:14;;;;;;;17.93;16.53;;;;;;;;;;5003407;28;20445;-44
2023/12/13 09:23:41;;;;;;;17.53;16.43;;;;;;;;;;5011829;28;20503;-41
2023/12/13 09:26:13;;;;;;;18.10;16.67;;;;;;;;;;5011343;28;20857;-43
2023/12/13 09:28:41;;;;;;;17.53;16.27;;;;;;;;;;4994915;28;20458;-41
2023/12/13 09:31:10;;;;;;;18.60;16.90;;;;;;;;;;4991815;28;20434;-40
2023/12/13 09:33:38;;;;;;;17.83;16.43;;;;;;;;;;4991820;28;20952;-40
2023/12/13 09:36:08;;;;;;;17.70;16.47;;;;;;;;;;4991511;28;20506;-40
2023/12/13 09:38:36;;;;;;;18.07;16.80;;;;;;;;;;5006851;28;20465;-39
2023/12/13 09:41:05;;;;;;;19.50;17.60;;;;;;;;;;5011527;28;20974;-40
2023/12/13 09:43:34;;;;;;;18.30;17.27;;;;;;;;;;5011491;28;20429;-39
2023/12/13 09:46:05;;;;;;;18.43;17.00;;;;;;;;;;5010806;28;20810;-40
2023/12/13 09:48:34;;;;;;;18.00;16.80;;;;;;;;;;4995846;28;20458;-41
2023/12/13 09:51:03;;;;;;;18.27;17.00;;;;;;;;;;4991732;28;20442;-39
2023/12/13 09:53:32;;;;;;;18.03;16.73;;;;;;;;;;4991816;28;20810;-39
2023/12/13 09:56:00;;;;;;;18.93;17.50;;;;;;;;;;4991237;28;20573;-41
2023/12/13 09:58:28;;;;;;;17.67;16.47;;;;;;;;;;5005586;28;20461;-42
2023/12/13 10:00:56;;;;;;;16.70;15.90;;;;;;;;;;5011034;28;20447;-41
2023/12/13 10:03:23;;;;;;;17.90;16.80;;;;;;;;;;5011211;28;20453;-40
2023/12/13 10:05:52;;;;;;;19.47;18.07;;;;;;;;;;5010753;28;20453;-40
2023/12/13 10:08:20;;;;;;;17.70;16.70;;;;;;;;;;4997385;28;21043;-43
2023/12/13 10:10:49;;;;;;;18.07;16.87;;;;;;;;;;4991603;28;20446;-43
2023/12/13 10:13:16;;;;;;;18.60;17.50;;;;;;;;;;4991758;28;20446;-40
2023/12/13 10:15:44;;;;;;;19.13;17.93;;;;;;;;;;4991154;28;20454;-42
2023/12/13 10:18:12;;;;;;;19.83;18.63;;;;;;;;;;5006684;28;20468;-39
2023/12/13 10:20:39;;;;;;;19.03;17.73;;;;;;;;;;5014760;28;20436;-40
2023/12/13 10:23:08;;;;;;;20.13;18.87;;;;;;;;;;5014557;28;20970;-40
2023/12/13 10:25:37;;;;;;;20.13;19.03;;;;;;;;;;5014376;28;20449;-44
2023/12/13 10:28:06;;;;;;;22.40;20.80;;;;;;;;;;5002984;28;20861;-38
2023/12/13 10:30:35;;;;;;;20.83;19.43;;;;;;;;;;4995128;28;20445;-40
2023/12/13 10:33:04;;;;;;;20.30;19.20;;;;;;;;;;4994752;28;20666;-40
2023/12/13 10:35:32;;;;;;;19.80;18.13;;;;;;;;;;4994650;28;20458;-39
2023/12/13 10:38:00;;;;;;;20.20;19.00;;;;;;;;;;5004854;28;20472;-39
2023/12/13 10:40:27;;;;;;;21.50;20.07;;;;;;;;;;5013993;28;20433;-39
2023/12/13 10:42:57;;;;;;;20.17;18.97;;;;;;;;;;5014482;28;20812;-42
2023/12/13 10:45:26;;;;;;;20.17;18.97;;;;;;;;;;5014325;28;20793;-39
2023/12/13 10:47:59;;;;;;;20.53;18.97;;;;;;;;;;5004090;28;20480;-39
2023/12/13 10:50:27;;;;;;;18.80;17.80;;;;;;;;;;4994706;28;20438;-39
2023/12/13 10:52:55;;;;;;;19.40;18.20;;;;;;;;;;4994272;28;20906;-39
2023/12/13 10:55:23;;;;;;;20.30;18.90;;;;;;;;;;4994294;28;20521;-39
2023/12/13 10:57:51;;;;;;;21.17;19.43;;;;;;;;;;5003444;28;20465;-42
2023/12/13 11:00:20;;;;;;;20.00;18.47;;;;;;;;;;5006097;28;20909;-39
2023/12/13 11:02:52;;;;;;;20.40;18.30;;;;;;;;;;5013825;28;20445;-40
2023/12/13 11:05:20;;;;;;;17.03;15.93;;;;;;;;;;5005644;28;20437;-41
2023/12/13 11:07:48;;;;;;;17.20;16.30;;;;;;;;;;5004586;28;20537;-39
2023/12/13 11:10:16;;;;;;;16.63;15.73;;;;;;;;;;4994220;28;20430;-41
2023/12/13 11:12:49;;;;;;;17.17;16.27;;;;;;;;;;4994320;28;20441;-39
2023/12/13 11:15:17;;;;;;;16.57;15.67;;;;;;;;;;4993807;28;20814;-39
2023/12/13 11:17:45;;;;;;;17.70;16.60;;;;;;;;;;5001961;28;20485;-40
2023/12/13 11:20:15;;;;;;;17.47;16.47;;;;;;;;;;5013743;28;20439;-41
2023/12/13 11:22:47;;;;;;;17.13;16.13;;;;;;;;;;5013731;28;20437;-40
2023/12/13 11:25:15;;;;;;;16.40;15.40;;;;;;;;;;5013271;28;20437;-40
2023/12/13 11:27:51;;;;;;;16.67;15.47;;;;;;;;;;5003821;28;20557;-38
2023/12/13 11:30:20;;;;;;;16.97;15.50;;;;;;;;;;4993824;28;20521;-39
2023/12/13 11:32:48;;;;;;;15.70;14.90;;;;;;;;;;4993903;28;20442;-39
2023/12/13 11:35:17;;;;;;;17.53;16.00;;;;;;;;;;4993510;28;20458;-38
2023/12/13 11:37:48;;;;;;;17.83;16.57;;;;;;;;;;5002043;28;20527;-42
2023/12/13 11:40:16;;;;;;;18.47;17.07;;;;;;;;;;5013276;28;20437;-41
2023/12/13 11:42:43;;;;;;;19.03;17.67;;;;;;;;;;5013043;28;20809;-38
2023/12/13 11:45:11;;;;;;;18.53;16.90;;;;;;;;;;5012934;28;20469;-40
2023/12/13 11:47:38;;;;;;;19.57;17.93;;;;;;;;;;5004878;28;20474;-39
2023/12/13 11:50:07;;;;;;;18.30;17.10;;;;;;;;;;4993471;28;20438;-38
2023/12/13 11:52:37;;;;;;;19.90;18.40;;;;;;;;;;4993445;28;20885;-39
2023/12/13 11:55:07;;;;;;;19.97;18.53;;;;;;;;;;4993046;28;20454;-39
2023/12/13 11:57:34;;;;;;;20.90;19.27;;;;;;;;;;4999859;28;20489;-39
2023/12/13 12:00:04;;;;;;;21.53;20.07;;;;;;;;;;5012880;28;20445;-39
2023/12/13 12:02:31;;;;;;;23.00;20.57;;;;;;;;;;5012707;28;20544;-41
2023/12/13 12:05:01;;;;;;;23.37;21.53;;;;;;;;;;5012464;28;20512;-39
2023/12/13 12:07:28;;;;;;;23.77;21.80;;;;;;;;;;5005857;28;20470;-39
2023/12/13 12:09:57;;;;;;;24.60;22.53;;;;;;;;;;4992924;28;20438;-40
2023/12/13 12:12:26;;;;;;;24.70;23.00;;;;;;;;;;4985616;28;20542;-39
2023/12/13 12:14:53;;;;;;;24.33;22.70;;;;;;;;;;4992871;28;20442;-38
2023/12/13 12:17:21;;;;;;;24.10;22.60;;;;;;;;;;4997755;28;20457;-40
2023/12/13 12:19:49;;;;;;;23.67;21.97;;;;;;;;;;5012473;28;20448;-38
2023/12/13 12:22:17;;;;;;;21.97;20.70;;;;;;;;;;5011602;28;20773;-40
2023/12/13 12:24:46;;;;;;;21.50;20.30;;;;;;;;;;5012486;28;20445;-38
2023/12/13 12:27:15;;;;;;;23.30;21.70;;;;;;;;;;5007284;28;21037;-41
2023/12/13 12:29:42;;;;;;;26.10;24.30;;;;;;;;;;4992839;28;20977;-43
2023/12/13 12:32:11;;;;;;;25.73;23.80;;;;;;;;;;4992609;28;20525;-40
2023/12/13 12:34:40;;;;;;;25.67;23.97;;;;;;;;;;4992508;28;20540;-41
2023/12/13 12:37:08;;;;;;;25.50;23.70;;;;;;;;;;4995556;28;20520;-39
2023/12/13 12:39:37;;;;;;;25.90;23.77;;;;;;;;;;5012166;28;20437;-42
2023/12/13 12:42:05;;;;;;;27.57;25.47;;;;;;;;;;5012231;28;20481;-42
2023/12/13 12:44:34;;;;;;;26.60;24.73;;;;;;;;;;5011894;28;20432;-42
2023/12/13 12:47:03;;;;;;;25.97;23.87;;;;;;;;;;5008844;28;21140;-39
2023/12/13 12:49:31;;;;;;;26.80;24.27;;;;;;;;;;4992465;28;20485;-40
2023/12/13 12:51:58;;;;;;;24.83;23.03;;;;;;;;;;4992520;28;20447;-40
2023/12/13 12:54:26;;;;;;;25.70;23.97;;;;;;;;;;4992080;28;20932;-39
2023/12/13 12:56:54;;;;;;;25.87;23.90;;;;;;;;;;4993502;28;21083;-40
2023/12/13 12:59:21;;;;;;;26.63;24.47;;;;;;;;;;5011666;28;20477;-38
2023/12/13 13:01:52;;;;;;;25.70;23.80;;;;;;;;;;5011626;28;20433;-39
2023/12/13 13:04:20;;;;;;;25.10;22.77;;;;;;;;;;5011939;28;20464;-39
2023/12/13 13:06:48;;;;;;;26.67;24.50;;;;;;;;;;5010565;28;20460;-39
2023/12/13 13:09:16;;;;;;;28.07;25.77;;;;;;;;;;4992116;28;20800;-40
2023/12/13 13:11:45;;;;;;;25.40;23.60;;;;;;;;;;4992179;28;20435;-40
2023/12/13 13:14:12;;;;;;;24.77;22.97;;;;;;;;;;4991868;28;20434;-40
2023/12/13 13:16:40;;;;;;;24.43;22.40;;;;;;;;;;4991627;28;20548;-41
2023/12/13 13:19:09;;;;;;;25.37;23.20;;;;;;;;;;4991879;28;20904;-39
2023/12/13 13:21:37;;;;;;;24.67;22.80;;;;;;;;;;4990920;28;20810;-39
2023/12/13 13:24:05;;;;;;;24.00;22.33;;;;;;;;;;4991997;28;20438;-39
2023/12/13 13:26:36;;;;;;;24.73;22.83;;;;;;;;;;4991793;28;20544;-39
2023/12/13 13:29:04;;;;;;;24.90;22.77;;;;;;;;;;5010584;28;20984;-41
2023/12/13 13:31:32;;;;;;;25.63;23.43;;;;;;;;;;5011725;28;20437;-41
2023/12/13 13:34:00;;;;;;;30.80;28.00;;;;;;;;;;5011360;28;20441;-40
2023/12/13 13:36:29;;;;;;;28.37;25.83;;;;;;;;;;5011402;28;20491;-40
2023/12/13 13:38:57;;;;;;;29.57;26.60;;;;;;;;;;4992664;28;20573;-39
2023/12/13 13:41:25;;;;;;;33.53;30.13;;;;;;;;;;4991626;28;20525;-39
2023/12/13 13:43:53;;;;;;;32.13;29.00;;;;;;;;;;4991910;28;20818;-38
2023/12/13 13:46:21;;;;;;;32.00;29.63;;;;;;;;;;4991243;28;20458;-39
2023/12/13 13:48:48;;;;;;;33.07;30.47;;;;;;;;;;5008533;28;20575;-40
2023/12/13 13:51:16;;;;;;;31.43;29.30;;;;;;;;;;5012122;28;20521;-39
2023/12/13 13:53:45;;;;;;;33.33;30.50;;;;;;;;;;5015281;28;20441;-41
2023/12/13 13:56:13;;;;;;;32.70;29.77;;;;;;;;;;5014418;28;20473;-39
2023/12/13 13:58:44;;;;;;;30.87;28.53;;;;;;;;;;4998121;28;20791;-38
2023/12/13 14:01:12;;;;;;;31.37;28.77;;;;;;;;;;4995358;28;20949;-38
2023/12/13 14:03:40;;;;;;;30.60;28.10;;;;;;;;;;4995409;28;20926;-38
2023/12/13 14:06:07;;;;;;;26.20;24.00;;;;;;;;;;4995000;28;20454;-39
2023/12/13 14:08:35;;;;;;;25.23;22.90;;;;;;;;;;5010388;28;20826;-39
2023/12/13 14:11:04;;;;;;;24.93;22.60;;;;;;;;;;5015198;28;20439;-39
2023/12/13 14:13:32;;;;;;;26.97;23.80;;;;;;;;;;5007382;28;20439;-42
2023/12/13 14:16:00;;;;;;;23.20;21.30;;;;;;;;;;5014440;28;21377;-39
2023/12/13 14:18:27;;;;;;;25.67;23.10;;;;;;;;;;5000170;28;20561;-40
2023/12/13 14:20:55;;;;;;;26.17;21.60;;;;;;;;;;4993190;28;20438;-39